Decoded Metar for MMSD (SAN JOSE DEL CABO in MEXICO) (IATA:SJD) | Meteo·Mobile Aviation Weather
aviador You're here:

MMSD Decoded Metar

SAN JOSE DEL CABO in MEXICO
Report Time2019-01-16 17:40:00
UTC Time2019-01-16 18:34:22
Flight Rules vfr VFR
Wind310° at 12 kt
W.Decomp.*RWY 34: 9.3 kt HW 7.6 kt LCW
W.Rank310° ranks 10
Current wind is above 310° avg. (6.2)
Visibility9999 m
Phenomena:N/A
Clouds:Few 250 Hf
Expected CloudBase > 3,600 ft AGL from Temp-Dew spread
CeilingNone
Temp24°C (ISA +10)
Dew Point15°C (57% RH)
AAT21.3°C
QNH1021 hPa
Density Alt1,444 ft
Elevation358 ft
Report Wrong Elevation
Raw Report
METAR MMSD 161740Z 31012KT 12SM FEW250 24/15 A3014 RMK SLP193 52006
954 8/004=

Extra information for MMSD:More info

Metar Taf Metar & Taf Last 4 Metars F.Rules Stats Wind Profile Meteogram Temp Stats Airport Information Weather charts Add Link Nearby VenuesMetar ALERT Operation Metar Decoded Social comments